sensor_id;sensor_type;location;lat;lon;timestamp;temperature;humidity
19947;DHT22;10135;50.702;7.276;2022-08-14T00:01:58;26.40;36.40
19947;DHT22;10135;50.702;7.276;2022-08-14T00:04:00;26.40;36.50
19947;DHT22;10135;50.702;7.276;2022-08-14T00:06:02;26.40;36.60
19947;DHT22;10135;50.702;7.276;2022-08-14T00:08:03;26.40;36.70
19947;DHT22;10135;50.702;7.276;2022-08-14T00:10:06;26.30;36.70
19947;DHT22;10135;50.702;7.276;2022-08-14T00:12:09;26.30;37.00
19947;DHT22;10135;50.702;7.276;2022-08-14T00:14:10;26.30;36.90
19947;DHT22;10135;50.702;7.276;2022-08-14T00:16:11;26.30;37.00
19947;DHT22;10135;50.702;7.276;2022-08-14T00:18:16;26.30;37.10
19947;DHT22;10135;50.702;7.276;2022-08-14T00:20:27;26.30;37.30
19947;DHT22;10135;50.702;7.276;2022-08-14T00:22:30;26.20;37.60
19947;DHT22;10135;50.702;7.276;2022-08-14T00:24:31;26.20;37.30
19947;DHT22;10135;50.702;7.276;2022-08-14T00:26:32;26.20;37.50
19947;DHT22;10135;50.702;7.276;2022-08-14T00:28:34;26.10;37.50
19947;DHT22;10135;50.702;7.276;2022-08-14T00:30:35;26.10;37.70
19947;DHT22;10135;50.702;7.276;2022-08-14T00:32:36;26.10;37.80
19947;DHT22;10135;50.702;7.276;2022-08-14T00:34:38;26.10;37.80
19947;DHT22;10135;50.702;7.276;2022-08-14T00:36:38;26.10;38.00
19947;DHT22;10135;50.702;7.276;2022-08-14T00:38:39;26.00;38.00
19947;DHT22;10135;50.702;7.276;2022-08-14T00:40:40;26.00;38.10
19947;DHT22;10135;50.702;7.276;2022-08-14T00:42:41;26.00;38.20
19947;DHT22;10135;50.702;7.276;2022-08-14T00:44:42;26.00;38.30
19947;DHT22;10135;50.702;7.276;2022-08-14T00:46:43;26.00;38.40
19947;DHT22;10135;50.702;7.276;2022-08-14T00:48:44;26.00;38.50
19947;DHT22;10135;50.702;7.276;2022-08-14T00:50:45;26.00;38.70
19947;DHT22;10135;50.702;7.276;2022-08-14T00:52:49;25.90;38.60
19947;DHT22;10135;50.702;7.276;2022-08-14T00:54:55;25.90;38.80
19947;DHT22;10135;50.702;7.276;2022-08-14T00:56:56;25.90;38.80
19947;DHT22;10135;50.702;7.276;2022-08-14T00:58:57;25.90;38.90
19947;DHT22;10135;50.702;7.276;2022-08-14T01:01:03;25.90;39.00
19947;DHT22;10135;50.702;7.276;2022-08-14T01:03:08;25.90;39.20
19947;DHT22;10135;50.702;7.276;2022-08-14T01:05:11;25.80;39.10
19947;DHT22;10135;50.702;7.276;2022-08-14T01:07:25;25.80;39.20
19947;DHT22;10135;50.702;7.276;2022-08-14T01:09:29;25.80;39.30
19947;DHT22;10135;50.702;7.276;2022-08-14T01:11:30;25.80;39.40
19947;DHT22;10135;50.702;7.276;2022-08-14T01:13:34;25.80;39.50
19947;DHT22;10135;50.702;7.276;2022-08-14T01:15:37;25.70;39.70
19947;DHT22;10135;50.702;7.276;2022-08-14T01:17:38;25.70;39.60
19947;DHT22;10135;50.702;7.276;2022-08-14T01:19:57;25.70;39.70
19947;DHT22;10135;50.702;7.276;2022-08-14T01:22:18;25.70;39.70
19947;DHT22;10135;50.702;7.276;2022-08-14T01:24:20;25.60;39.70
19947;DHT22;10135;50.702;7.276;2022-08-14T01:26:22;25.60;39.80
19947;DHT22;10135;50.702;7.276;2022-08-14T01:28:24;25.60;39.90
19947;DHT22;10135;50.702;7.276;2022-08-14T01:30:33;25.60;40.00
19947;DHT22;10135;50.702;7.276;2022-08-14T01:32:37;25.50;40.30
19947;DHT22;10135;50.702;7.276;2022-08-14T01:34:38;25.50;40.10
19947;DHT22;10135;50.702;7.276;2022-08-14T01:36:39;25.50;40.30
19947;DHT22;10135;50.702;7.276;2022-08-14T01:38:43;25.50;40.40
19947;DHT22;10135;50.702;7.276;2022-08-14T01:40:48;25.40;40.70
19947;DHT22;10135;50.702;7.276;2022-08-14T01:42:49;25.40;40.60
19947;DHT22;10135;50.702;7.276;2022-08-14T01:44:50;25.40;40.80
19947;DHT22;10135;50.702;7.276;2022-08-14T01:46:59;25.40;40.80
19947;DHT22;10135;50.702;7.276;2022-08-14T01:49:06;25.40;40.90
19947;DHT22;10135;50.702;7.276;2022-08-14T01:51:09;25.40;41.00
19947;DHT22;10135;50.702;7.276;2022-08-14T01:53:12;25.40;41.00
19947;DHT22;10135;50.702;7.276;2022-08-14T01:55:14;25.40;41.10
19947;DHT22;10135;50.702;7.276;2022-08-14T01:57:15;25.30;41.20
19947;DHT22;10135;50.702;7.276;2022-08-14T01:59:20;25.30;41.20
19947;DHT22;10135;50.702;7.276;2022-08-14T02:01:23;25.30;41.50
19947;DHT22;10135;50.702;7.276;2022-08-14T02:03:27;25.30;41.30
19947;DHT22;10135;50.702;7.276;2022-08-14T02:05:34;25.30;41.60
19947;DHT22;10135;50.702;7.276;2022-08-14T02:07:35;25.30;41.60
19947;DHT22;10135;50.702;7.276;2022-08-14T02:09:37;25.20;41.60
19947;DHT22;10135;50.702;7.276;2022-08-14T02:11:39;25.20;41.70
19947;DHT22;10135;50.702;7.276;2022-08-14T02:13:39;25.20;41.70
19947;DHT22;10135;50.702;7.276;2022-08-14T02:15:40;25.20;41.80
19947;DHT22;10135;50.702;7.276;2022-08-14T02:17:42;25.20;41.90
19947;DHT22;10135;50.702;7.276;2022-08-14T02:19:42;25.10;41.90
19947;DHT22;10135;50.702;7.276;2022-08-14T02:21:45;25.10;42.00
19947;DHT22;10135;50.702;7.276;2022-08-14T02:23:50;25.10;42.20
19947;DHT22;10135;50.702;7.276;2022-08-14T02:25:53;25.10;42.20
19947;DHT22;10135;50.702;7.276;2022-08-14T02:27:54;25.10;42.20
19947;DHT22;10135;50.702;7.276;2022-08-14T02:29:55;25.10;42.30
19947;DHT22;10135;50.702;7.276;2022-08-14T02:31:58;25.10;42.40
19947;DHT22;10135;50.702;7.276;2022-08-14T02:34:07;25.00;42.40
19947;DHT22;10135;50.702;7.276;2022-08-14T02:36:11;25.00;42.90
19947;DHT22;10135;50.702;7.276;2022-08-14T02:38:12;25.00;43.20
19947;DHT22;10135;50.702;7.276;2022-08-14T02:40:13;25.00;42.70
19947;DHT22;10135;50.702;7.276;2022-08-14T02:42:17;25.00;42.80
19947;DHT22;10135;50.702;7.276;2022-08-14T02:44:20;24.90;43.00
19947;DHT22;10135;50.702;7.276;2022-08-14T02:46:22;24.90;42.90
19947;DHT22;10135;50.702;7.276;2022-08-14T02:48:23;24.90;42.90
19947;DHT22;10135;50.702;7.276;2022-08-14T02:50:34;24.90;43.00
19947;DHT22;10135;50.702;7.276;2022-08-14T02:52:36;24.90;43.10
19947;DHT22;10135;50.702;7.276;2022-08-14T02:54:37;24.90;43.10
19947;DHT22;10135;50.702;7.276;2022-08-14T02:56:38;24.80;43.20
19947;DHT22;10135;50.702;7.276;2022-08-14T02:58:41;24.80;43.20
19947;DHT22;10135;50.702;7.276;2022-08-14T03:00:46;24.80;43.30
19947;DHT22;10135;50.702;7.276;2022-08-14T03:02:48;24.80;43.40
19947;DHT22;10135;50.702;7.276;2022-08-14T03:04:50;24.70;43.50
19947;DHT22;10135;50.702;7.276;2022-08-14T03:06:53;24.70;43.60
19947;DHT22;10135;50.702;7.276;2022-08-14T03:08:54;24.70;43.60
19947;DHT22;10135;50.702;7.276;2022-08-14T03:10:55;24.70;43.70
19947;DHT22;10135;50.702;7.276;2022-08-14T03:12:56;24.70;43.80
19947;DHT22;10135;50.702;7.276;2022-08-14T03:14:59;24.70;43.90
19947;DHT22;10135;50.702;7.276;2022-08-14T03:17:12;24.70;44.00
19947;DHT22;10135;50.702;7.276;2022-08-14T03:19:15;24.60;43.80
19947;DHT22;10135;50.702;7.276;2022-08-14T03:21:18;24.60;43.90
19947;DHT22;10135;50.702;7.276;2022-08-14T03:23:21;24.50;44.00
19947;DHT22;10135;50.702;7.276;2022-08-14T03:25:22;24.40;44.00
19947;DHT22;10135;50.702;7.276;2022-08-14T03:27:22;24.40;44.10
19947;DHT22;10135;50.702;7.276;2022-08-14T03:29:25;24.30;44.20
19947;DHT22;10135;50.702;7.276;2022-08-14T03:31:27;24.20;44.30
19947;DHT22;10135;50.702;7.276;2022-08-14T03:33:28;24.20;44.50
19947;DHT22;10135;50.702;7.276;2022-08-14T03:35:29;24.10;44.60
19947;DHT22;10135;50.702;7.276;2022-08-14T03:37:30;24.10;44.70
19947;DHT22;10135;50.702;7.276;2022-08-14T03:39:32;24.10;44.80
19947;DHT22;10135;50.702;7.276;2022-08-14T03:41:33;24.00;44.90
19947;DHT22;10135;50.702;7.276;2022-08-14T03:43:34;24.10;45.00
19947;DHT22;10135;50.702;7.276;2022-08-14T03:45:37;24.10;45.10
19947;DHT22;10135;50.702;7.276;2022-08-14T03:47:39;24.00;45.30
19947;DHT22;10135;50.702;7.276;2022-08-14T03:49:40;24.00;45.30
19947;DHT22;10135;50.702;7.276;2022-08-14T03:51:43;24.00;45.90
19947;DHT22;10135;50.702;7.276;2022-08-14T03:53:45;24.00;45.40
19947;DHT22;10135;50.702;7.276;2022-08-14T03:55:47;24.10;45.50
19947;DHT22;10135;50.702;7.276;2022-08-14T03:57:47;24.10;45.50
19947;DHT22;10135;50.702;7.276;2022-08-14T03:59:48;24.10;45.60
19947;DHT22;10135;50.702;7.276;2022-08-14T04:01:49;24.10;45.60
19947;DHT22;10135;50.702;7.276;2022-08-14T04:03:54;24.10;45.60
19947;DHT22;10135;50.702;7.276;2022-08-14T04:05:58;24.10;45.80
19947;DHT22;10135;50.702;7.276;2022-08-14T04:07:59;24.10;45.80
19947;DHT22;10135;50.702;7.276;2022-08-14T04:10:00;24.10;45.90
19947;DHT22;10135;50.702;7.276;2022-08-14T04:12:01;24.10;45.90
19947;DHT22;10135;50.702;7.276;2022-08-14T04:14:03;24.10;45.90
19947;DHT22;10135;50.702;7.276;2022-08-14T04:16:08;24.10;46.00
19947;DHT22;10135;50.702;7.276;2022-08-14T04:18:11;24.10;46.00
19947;DHT22;10135;50.702;7.276;2022-08-14T04:20:12;24.10;46.00
19947;DHT22;10135;50.702;7.276;2022-08-14T04:22:13;24.10;46.00
19947;DHT22;10135;50.702;7.276;2022-08-14T04:24:14;24.00;46.70
19947;DHT22;10135;50.702;7.276;2022-08-14T04:26:16;24.00;46.10
19947;DHT22;10135;50.702;7.276;2022-08-14T04:28:19;23.90;46.20
19947;DHT22;10135;50.702;7.276;2022-08-14T04:30:20;23.90;46.20
19947;DHT22;10135;50.702;7.276;2022-08-14T04:32:21;23.80;46.20
19947;DHT22;10135;50.702;7.276;2022-08-14T04:34:25;23.80;46.30
19947;DHT22;10135;50.702;7.276;2022-08-14T04:36:25;23.70;46.40
19947;DHT22;10135;50.702;7.276;2022-08-14T04:38:26;23.70;46.50
19947;DHT22;10135;50.702;7.276;2022-08-14T04:40:45;23.60;46.60
19947;DHT22;10135;50.702;7.276;2022-08-14T04:43:04;23.60;46.70
19947;DHT22;10135;50.702;7.276;2022-08-14T04:45:25;23.60;46.80
19947;DHT22;10135;50.702;7.276;2022-08-14T04:47:35;23.60;46.90
19947;DHT22;10135;50.702;7.276;2022-08-14T04:49:54;23.60;47.00
19947;DHT22;10135;50.702;7.276;2022-08-14T04:51:55;23.70;47.10
19947;DHT22;10135;50.702;7.276;2022-08-14T04:53:56;23.70;47.20
19947;DHT22;10135;50.702;7.276;2022-08-14T04:55:58;23.70;47.30
19947;DHT22;10135;50.702;7.276;2022-08-14T04:57:58;23.70;47.40
19947;DHT22;10135;50.702;7.276;2022-08-14T04:59:59;23.80;47.40
19947;DHT22;10135;50.702;7.276;2022-08-14T05:02:00;23.80;47.50
19947;DHT22;10135;50.702;7.276;2022-08-14T05:04:00;23.80;47.50
19947;DHT22;10135;50.702;7.276;2022-08-14T05:06:04;23.90;47.50
19947;DHT22;10135;50.702;7.276;2022-08-14T05:08:08;23.90;47.80
19947;DHT22;10135;50.702;7.276;2022-08-14T05:10:11;23.90;47.70
19947;DHT22;10135;50.702;7.276;2022-08-14T05:12:12;24.00;47.70
19947;DHT22;10135;50.702;7.276;2022-08-14T05:14:14;24.00;47.70
19947;DHT22;10135;50.702;7.276;2022-08-14T05:16:15;24.00;47.60
19947;DHT22;10135;50.702;7.276;2022-08-14T05:18:18;24.00;47.60
19947;DHT22;10135;50.702;7.276;2022-08-14T05:20:23;24.00;47.80
19947;DHT22;10135;50.702;7.276;2022-08-14T05:22:24;24.00;47.80
19947;DHT22;10135;50.702;7.276;2022-08-14T05:24:24;24.00;47.90
19947;DHT22;10135;50.702;7.276;2022-08-14T05:26:25;24.00;47.90
19947;DHT22;10135;50.702;7.276;2022-08-14T05:28:27;24.10;48.00
19947;DHT22;10135;50.702;7.276;2022-08-14T05:30:30;24.10;48.10
19947;DHT22;10135;50.702;7.276;2022-08-14T05:32:31;24.10;48.10
19947;DHT22;10135;50.702;7.276;2022-08-14T05:34:32;24.20;48.20
19947;DHT22;10135;50.702;7.276;2022-08-14T05:36:33;24.20;48.20
19947;DHT22;10135;50.702;7.276;2022-08-14T05:38:36;24.20;48.20
19947;DHT22;10135;50.702;7.276;2022-08-14T05:40:45;24.20;48.30
19947;DHT22;10135;50.702;7.276;2022-08-14T05:42:47;24.30;48.70
19947;DHT22;10135;50.702;7.276;2022-08-14T05:44:47;24.30;48.40
19947;DHT22;10135;50.702;7.276;2022-08-14T05:46:48;24.40;48.50
19947;DHT22;10135;50.702;7.276;2022-08-14T05:48:54;24.40;48.50
19947;DHT22;10135;50.702;7.276;2022-08-14T05:50:56;24.50;48.90
19947;DHT22;10135;50.702;7.276;2022-08-14T05:52:57;24.50;48.60
19947;DHT22;10135;50.702;7.276;2022-08-14T05:54:58;24.60;48.70
19947;DHT22;10135;50.702;7.276;2022-08-14T05:56:59;24.60;48.70
19947;DHT22;10135;50.702;7.276;2022-08-14T05:59:00;24.70;48.70
19947;DHT22;10135;50.702;7.276;2022-08-14T06:01:01;24.80;48.70
19947;DHT22;10135;50.702;7.276;2022-08-14T06:03:04;24.80;48.70
19947;DHT22;10135;50.702;7.276;2022-08-14T06:05:09;24.90;48.80
19947;DHT22;10135;50.702;7.276;2022-08-14T06:07:10;24.90;48.80
19947;DHT22;10135;50.702;7.276;2022-08-14T06:09:11;25.00;48.70
19947;DHT22;10135;50.702;7.276;2022-08-14T06:11:11;25.10;48.80
19947;DHT22;10135;50.702;7.276;2022-08-14T06:13:13;25.20;49.00
19947;DHT22;10135;50.702;7.276;2022-08-14T06:15:14;25.30;49.00
19947;DHT22;10135;50.702;7.276;2022-08-14T06:17:14;25.40;49.00
19947;DHT22;10135;50.702;7.276;2022-08-14T06:19:15;25.50;48.90
19947;DHT22;10135;50.702;7.276;2022-08-14T06:21:16;25.60;48.90
19947;DHT22;10135;50.702;7.276;2022-08-14T06:23:17;25.70;48.90
19947;DHT22;10135;50.702;7.276;2022-08-14T06:25:18;25.70;48.80
19947;DHT22;10135;50.702;7.276;2022-08-14T06:27:18;25.80;48.80
19947;DHT22;10135;50.702;7.276;2022-08-14T06:29:19;25.90;48.80
19947;DHT22;10135;50.702;7.276;2022-08-14T06:31:20;26.00;48.80
19947;DHT22;10135;50.702;7.276;2022-08-14T06:33:21;26.00;48.70
19947;DHT22;10135;50.702;7.276;2022-08-14T06:35:22;26.00;48.70
19947;DHT22;10135;50.702;7.276;2022-08-14T06:37:23;26.10;48.70
19947;DHT22;10135;50.702;7.276;2022-08-14T06:39:24;26.10;48.70
19947;DHT22;10135;50.702;7.276;2022-08-14T06:41:25;26.10;48.70
19947;DHT22;10135;50.702;7.276;2022-08-14T06:43:25;26.10;48.50
19947;DHT22;10135;50.702;7.276;2022-08-14T06:45:26;26.10;48.50
19947;DHT22;10135;50.702;7.276;2022-08-14T06:47:27;26.20;48.50
19947;DHT22;10135;50.702;7.276;2022-08-14T06:49:28;26.20;48.50
19947;DHT22;10135;50.702;7.276;2022-08-14T06:51:28;26.20;49.10
19947;DHT22;10135;50.702;7.276;2022-08-14T06:53:29;26.10;48.50
19947;DHT22;10135;50.702;7.276;2022-08-14T06:55:30;26.10;48.50
19947;DHT22;10135;50.702;7.276;2022-08-14T06:57:41;26.10;48.50
19947;DHT22;10135;50.702;7.276;2022-08-14T06:59:44;26.10;48.70
19947;DHT22;10135;50.702;7.276;2022-08-14T07:01:45;26.10;48.50
19947;DHT22;10135;50.702;7.276;2022-08-14T07:04:05;26.10;48.60
19947;DHT22;10135;50.702;7.276;2022-08-14T07:06:24;26.10;48.70
19947;DHT22;10135;50.702;7.276;2022-08-14T07:08:28;26.10;48.70
19947;DHT22;10135;50.702;7.276;2022-08-14T07:10:30;26.10;48.70
19947;DHT22;10135;50.702;7.276;2022-08-14T07:12:32;26.20;48.80
19947;DHT22;10135;50.702;7.276;2022-08-14T07:14:32;26.20;48.80
19947;DHT22;10135;50.702;7.276;2022-08-14T07:16:33;26.20;48.80
19947;DHT22;10135;50.702;7.276;2022-08-14T07:18:35;26.20;48.80
19947;DHT22;10135;50.702;7.276;2022-08-14T07:20:38;26.20;48.80
19947;DHT22;10135;50.702;7.276;2022-08-14T07:22:39;26.30;48.80
19947;DHT22;10135;50.702;7.276;2022-08-14T07:24:40;26.30;48.80
19947;DHT22;10135;50.702;7.276;2022-08-14T07:26:41;26.30;48.90
19947;DHT22;10135;50.702;7.276;2022-08-14T07:28:42;26.40;49.00
19947;DHT22;10135;50.702;7.276;2022-08-14T07:30:42;26.40;49.00
19947;DHT22;10135;50.702;7.276;2022-08-14T07:32:43;26.40;49.00
19947;DHT22;10135;50.702;7.276;2022-08-14T07:34:44;26.40;48.90
19947;DHT22;10135;50.702;7.276;2022-08-14T07:36:45;26.50;49.00
19947;DHT22;10135;50.702;7.276;2022-08-14T07:38:45;26.50;49.00
19947;DHT22;10135;50.702;7.276;2022-08-14T07:40:50;26.60;49.00
19947;DHT22;10135;50.702;7.276;2022-08-14T07:42:51;26.60;49.10
19947;DHT22;10135;50.702;7.276;2022-08-14T07:44:52;26.70;49.00
19947;DHT22;10135;50.702;7.276;2022-08-14T07:46:53;26.70;49.00
19947;DHT22;10135;50.702;7.276;2022-08-14T07:48:53;26.70;49.10
19947;DHT22;10135;50.702;7.276;2022-08-14T07:50:54;26.80;49.10
19947;DHT22;10135;50.702;7.276;2022-08-14T07:52:55;26.80;49.10
19947;DHT22;10135;50.702;7.276;2022-08-14T07:54:55;26.80;49.00
19947;DHT22;10135;50.702;7.276;2022-08-14T07:57:00;26.80;49.00
19947;DHT22;10135;50.702;7.276;2022-08-14T07:59:00;26.90;49.00
19947;DHT22;10135;50.702;7.276;2022-08-14T08:01:01;27.00;49.10
19947;DHT22;10135;50.702;7.276;2022-08-14T08:03:03;27.00;49.70
19947;DHT22;10135;50.702;7.276;2022-08-14T08:05:10;27.00;49.70
19947;DHT22;10135;50.702;7.276;2022-08-14T08:07:12;27.10;49.10
19947;DHT22;10135;50.702;7.276;2022-08-14T08:09:16;27.10;49.10
19947;DHT22;10135;50.702;7.276;2022-08-14T08:11:18;27.20;49.20
19947;DHT22;10135;50.702;7.276;2022-08-14T08:13:19;27.20;49.20
19947;DHT22;10135;50.702;7.276;2022-08-14T08:15:21;27.30;49.10
19947;DHT22;10135;50.702;7.276;2022-08-14T08:17:23;27.40;49.10
19947;DHT22;10135;50.702;7.276;2022-08-14T08:19:24;27.40;49.00
19947;DHT22;10135;50.702;7.276;2022-08-14T08:21:25;27.50;49.10
19947;DHT22;10135;50.702;7.276;2022-08-14T08:23:27;27.50;49.00
19947;DHT22;10135;50.702;7.276;2022-08-14T08:25:31;27.50;49.00
19947;DHT22;10135;50.702;7.276;2022-08-14T08:27:37;27.60;49.00
19947;DHT22;10135;50.702;7.276;2022-08-14T08:29:37;27.70;49.00
19947;DHT22;10135;50.702;7.276;2022-08-14T08:31:46;27.70;49.00
19947;DHT22;10135;50.702;7.276;2022-08-14T08:33:51;27.70;49.00
19947;DHT22;10135;50.702;7.276;2022-08-14T08:35:57;27.80;49.00
19947;DHT22;10135;50.702;7.276;2022-08-14T08:38:05;27.80;49.00
19947;DHT22;10135;50.702;7.276;2022-08-14T08:40:08;27.90;48.90
19947;DHT22;10135;50.702;7.276;2022-08-14T08:42:09;28.00;48.90
19947;DHT22;10135;50.702;7.276;2022-08-14T08:44:10;28.00;48.80
19947;DHT22;10135;50.702;7.276;2022-08-14T08:46:14;28.10;48.80
19947;DHT22;10135;50.702;7.276;2022-08-14T08:48:23;28.10;48.70
19947;DHT22;10135;50.702;7.276;2022-08-14T08:50:33;28.20;48.70
19947;DHT22;10135;50.702;7.276;2022-08-14T08:52:46;28.20;48.60
19947;DHT22;10135;50.702;7.276;2022-08-14T08:54:53;28.30;48.50
19947;DHT22;10135;50.702;7.276;2022-08-14T08:56:54;28.30;48.40
19947;DHT22;10135;50.702;7.276;2022-08-14T08:58:54;28.40;48.40
19947;DHT22;10135;50.702;7.276;2022-08-14T09:00:57;28.40;48.30
19947;DHT22;10135;50.702;7.276;2022-08-14T09:03:05;28.40;48.30
19947;DHT22;10135;50.702;7.276;2022-08-14T09:05:07;28.50;48.20
19947;DHT22;10135;50.702;7.276;2022-08-14T09:07:08;28.60;48.40
19947;DHT22;10135;50.702;7.276;2022-08-14T09:09:30;28.60;48.20
19947;DHT22;10135;50.702;7.276;2022-08-14T09:11:32;28.70;48.00
19947;DHT22;10135;50.702;7.276;2022-08-14T09:13:32;28.70;48.00
19947;DHT22;10135;50.702;7.276;2022-08-14T09:15:33;28.70;47.90
19947;DHT22;10135;50.702;7.276;2022-08-14T09:17:34;28.80;47.80
19947;DHT22;10135;50.702;7.276;2022-08-14T09:19:36;28.80;47.80
19947;DHT22;10135;50.702;7.276;2022-08-14T09:21:38;28.90;47.90
19947;DHT22;10135;50.702;7.276;2022-08-14T09:23:40;28.90;47.70
19947;DHT22;10135;50.702;7.276;2022-08-14T09:25:44;29.00;47.60
19947;DHT22;10135;50.702;7.276;2022-08-14T09:27:47;29.00;47.50
19947;DHT22;10135;50.702;7.276;2022-08-14T09:29:48;29.10;47.50
19947;DHT22;10135;50.702;7.276;2022-08-14T09:31:51;29.10;47.40
19947;DHT22;10135;50.702;7.276;2022-08-14T09:43:53;29.40;46.90
19947;DHT22;10135;50.702;7.276;2022-08-14T09:46:06;29.50;46.80
19947;DHT22;10135;50.702;7.276;2022-08-14T09:48:33;29.50;46.60
19947;DHT22;10135;50.702;7.276;2022-08-14T09:50:54;29.60;46.50
19947;DHT22;10135;50.702;7.276;2022-08-14T09:53:05;29.70;46.30
19947;DHT22;10135;50.702;7.276;2022-08-14T09:55:15;29.70;46.10
19947;DHT22;10135;50.702;7.276;2022-08-14T09:57:26;29.70;46.00
19947;DHT22;10135;50.702;7.276;2022-08-14T09:59:39;29.80;46.10
19947;DHT22;10135;50.702;7.276;2022-08-14T10:01:45;29.80;45.90
19947;DHT22;10135;50.702;7.276;2022-08-14T10:03:53;29.90;46.10
19947;DHT22;10135;50.702;7.276;2022-08-14T10:06:13;30.00;45.70
19947;DHT22;10135;50.702;7.276;2022-08-14T10:08:19;30.00;45.40
19947;DHT22;10135;50.702;7.276;2022-08-14T10:10:39;30.00;45.60
19947;DHT22;10135;50.702;7.276;2022-08-14T10:12:44;30.10;45.40
19947;DHT22;10135;50.702;7.276;2022-08-14T10:14:48;30.20;45.60
19947;DHT22;10135;50.702;7.276;2022-08-14T10:16:50;30.30;45.50
19947;DHT22;10135;50.702;7.276;2022-08-14T10:19:08;30.30;45.30
19947;DHT22;10135;50.702;7.276;2022-08-14T10:21:16;30.40;44.80
19947;DHT22;10135;50.702;7.276;2022-08-14T10:23:20;30.40;44.80
19947;DHT22;10135;50.702;7.276;2022-08-14T10:25:22;30.40;44.90
19947;DHT22;10135;50.702;7.276;2022-08-14T10:27:26;30.50;45.10
19947;DHT22;10135;50.702;7.276;2022-08-14T10:29:32;30.50;45.00
19947;DHT22;10135;50.702;7.276;2022-08-14T10:31:35;30.60;44.30
19947;DHT22;10135;50.702;7.276;2022-08-14T10:33:37;30.60;44.60
19947;DHT22;10135;50.702;7.276;2022-08-14T10:35:43;30.60;44.60
19947;DHT22;10135;50.702;7.276;2022-08-14T10:37:47;30.70;44.10
19947;DHT22;10135;50.702;7.276;2022-08-14T10:40:00;30.70;44.20
19947;DHT22;10135;50.702;7.276;2022-08-14T10:42:07;30.80;43.90
19947;DHT22;10135;50.702;7.276;2022-08-14T10:44:16;30.80;44.00
19947;DHT22;10135;50.702;7.276;2022-08-14T10:46:20;30.80;43.90
19947;DHT22;10135;50.702;7.276;2022-08-14T10:48:22;30.90;43.90
19947;DHT22;10135;50.702;7.276;2022-08-14T10:50:34;31.00;43.80
19947;DHT22;10135;50.702;7.276;2022-08-14T10:52:41;31.00;43.20
19947;DHT22;10135;50.702;7.276;2022-08-14T10:54:44;31.10;43.60
19947;DHT22;10135;50.702;7.276;2022-08-14T10:56:46;31.10;44.10
19947;DHT22;10135;50.702;7.276;2022-08-14T10:58:46;31.20;43.30
19947;DHT22;10135;50.702;7.276;2022-08-14T11:00:56;31.30;43.30
19947;DHT22;10135;50.702;7.276;2022-08-14T11:03:05;31.30;42.80
19947;DHT22;10135;50.702;7.276;2022-08-14T11:05:12;31.40;43.00
19947;DHT22;10135;50.702;7.276;2022-08-14T11:07:15;31.40;43.00
19947;DHT22;10135;50.702;7.276;2022-08-14T11:09:15;31.50;42.90
19947;DHT22;10135;50.702;7.276;2022-08-14T11:11:16;31.50;42.80
19947;DHT22;10135;50.702;7.276;2022-08-14T11:13:19;31.60;42.70
19947;DHT22;10135;50.702;7.276;2022-08-14T11:15:26;31.60;42.60
19947;DHT22;10135;50.702;7.276;2022-08-14T11:17:31;31.70;42.40
19947;DHT22;10135;50.702;7.276;2022-08-14T11:19:35;31.70;42.40
19947;DHT22;10135;50.702;7.276;2022-08-14T11:21:38;31.80;42.30
19947;DHT22;10135;50.702;7.276;2022-08-14T11:23:44;31.80;42.10
19947;DHT22;10135;50.702;7.276;2022-08-14T11:25:46;31.80;42.00
19947;DHT22;10135;50.702;7.276;2022-08-14T11:27:50;31.90;42.00
19947;DHT22;10135;50.702;7.276;2022-08-14T11:29:54;31.90;41.90
19947;DHT22;10135;50.702;7.276;2022-08-14T11:31:59;32.00;41.80
19947;DHT22;10135;50.702;7.276;2022-08-14T11:34:00;32.00;41.70
19947;DHT22;10135;50.702;7.276;2022-08-14T11:36:03;32.00;41.60
19947;DHT22;10135;50.702;7.276;2022-08-14T11:38:06;32.00;41.60
19947;DHT22;10135;50.702;7.276;2022-08-14T11:40:15;32.00;41.60
19947;DHT22;10135;50.702;7.276;2022-08-14T11:42:21;32.10;41.20
19947;DHT22;10135;50.702;7.276;2022-08-14T11:44:23;32.10;41.20
19947;DHT22;10135;50.702;7.276;2022-08-14T11:46:25;32.10;41.40
19947;DHT22;10135;50.702;7.276;2022-08-14T11:48:27;32.10;41.30
19947;DHT22;10135;50.702;7.276;2022-08-14T11:50:31;32.20;41.20
19947;DHT22;10135;50.702;7.276;2022-08-14T11:52:34;32.20;40.90
19947;DHT22;10135;50.702;7.276;2022-08-14T11:54:38;32.30;40.90
19947;DHT22;10135;50.702;7.276;2022-08-14T11:56:39;32.30;40.90
19947;DHT22;10135;50.702;7.276;2022-08-14T11:58:40;32.40;41.00
19947;DHT22;10135;50.702;7.276;2022-08-14T12:00:49;32.40;40.90
19947;DHT22;10135;50.702;7.276;2022-08-14T12:02:54;32.40;40.40
19947;DHT22;10135;50.702;7.276;2022-08-14T12:04:56;32.50;40.50
19947;DHT22;10135;50.702;7.276;2022-08-14T12:06:58;32.50;40.60
19947;DHT22;10135;50.702;7.276;2022-08-14T12:09:00;32.60;40.50
19947;DHT22;10135;50.702;7.276;2022-08-14T12:11:00;32.60;40.40
19947;DHT22;10135;50.702;7.276;2022-08-14T12:15:31;32.70;39.80
19947;DHT22;10135;50.702;7.276;2022-08-14T12:17:45;32.70;39.60
19947;DHT22;10135;50.702;7.276;2022-08-14T12:19:51;32.70;39.60
19947;DHT22;10135;50.702;7.276;2022-08-14T12:21:52;32.80;40.00
19947;DHT22;10135;50.702;7.276;2022-08-14T12:24:05;32.80;39.90
19947;DHT22;10135;50.702;7.276;2022-08-14T12:26:12;32.80;39.30
19947;DHT22;10135;50.702;7.276;2022-08-14T12:28:17;32.90;39.80
19947;DHT22;10135;50.702;7.276;2022-08-14T12:30:28;32.90;39.70
19947;DHT22;10135;50.702;7.276;2022-08-14T12:32:42;32.90;39.10
19947;DHT22;10135;50.702;7.276;2022-08-14T12:34:51;32.90;39.20
19947;DHT22;10135;50.702;7.276;2022-08-14T12:37:06;32.90;39.20
19947;DHT22;10135;50.702;7.276;2022-08-14T12:39:22;33.00;39.20
19947;DHT22;10135;50.702;7.276;2022-08-14T12:41:24;33.00;39.10
19947;DHT22;10135;50.702;7.276;2022-08-14T12:43:26;33.10;39.40
19947;DHT22;10135;50.702;7.276;2022-08-14T12:45:30;33.10;39.40
19947;DHT22;10135;50.702;7.276;2022-08-14T12:47:32;33.20;39.30
19947;DHT22;10135;50.702;7.276;2022-08-14T12:49:33;33.20;39.20
19947;DHT22;10135;50.702;7.276;2022-08-14T12:51:35;33.20;39.20
19947;DHT22;10135;50.702;7.276;2022-08-14T12:53:35;33.20;39.10
19947;DHT22;10135;50.702;7.276;2022-08-14T12:55:38;33.20;38.90
19947;DHT22;10135;50.702;7.276;2022-08-14T12:57:45;33.10;38.80
19947;DHT22;10135;50.702;7.276;2022-08-14T12:59:47;33.10;38.90
19947;DHT22;10135;50.702;7.276;2022-08-14T13:01:55;33.00;38.70
19947;DHT22;10135;50.702;7.276;2022-08-14T13:04:06;32.90;38.20
19947;DHT22;10135;50.702;7.276;2022-08-14T13:06:08;32.90;37.90
19947;DHT22;10135;50.702;7.276;2022-08-14T13:08:09;32.80;38.20
19947;DHT22;10135;50.702;7.276;2022-08-14T13:10:11;32.80;38.10
19947;DHT22;10135;50.702;7.276;2022-08-14T13:12:22;32.70;38.10
19947;DHT22;10135;50.702;7.276;2022-08-14T13:14:28;32.70;37.90